Augusta, MI

4:30 PM EDT on October 24, 2014 (GMT -0400)
Gull lake Sewer Authority | Change Station
CLOSE
Current Station
Personal Weather Station
Location: Richland, MI
Elevation: 905 ft
Nearby Weather Stations

Elev 905 ft 42.37 °N, 85.40 °W | Updated 31 seconds ago

Overcast
Overcast
62.5 °F
Feels Like 62.5 °F
N
1.0
Wind Variable Wind from NW
Gusts 1.0 mph

Today
High -- | Low -- °F
--% Chance of Precip.
Yesterday
High -- | Low -- °F
Precip. -- in
8:04 AM 6:45 PM
New Moon, 1% visible
Pressure 29.99 in
Visibility 10.0 miles
Clouds Mostly Cloudy 3800 ft
Dew Point 51 °F
Humidity 65%
Rainfall 0.00 in
Snow Depth Not available.
UV 1 out of 12
Pollen 1.30 out of 12
PM2.5 Good
Flu Activity Sporadic
METAR KBTL 241953Z 26012KT 10SM BKN038 17/08 A2999 RMK AO2 SLP155 T01720083

More Conditions Fewer Conditions

Pressure 29.99 in
Visibility 10.0 miles
Clouds Mostly Cloudy 3800 ft
Dew Point 51 °F
Humidity 65%
Rainfall 0.00 in
Snow Depth Not available.
UV 1 out of 12
Pollen 1.30 out of 12
PM2.5 Good
Flu Activity Sporadic
METAR KBTL 241953Z 26012KT 10SM BKN038 17/08 A2999 RMK AO2 SLP155 T01720083

More Conditions Fewer Conditions

10-Day Weather Forecast

Almanac

Astronomy

Oct. 24, 2014 Rise Set
Actual Time 8:04 AM EDT 6:45 PM EDT
Civil Twilight 7:36 AM EDT 7:14 PM EDT
Nautical Twilight 7:03 AM EDT 7:47 PM EDT
Astronomical Twilight 6:30 AM EDT 8:19 PM EDT
Moon 8:43 AM EDT 7:24 PM EDT
Length of Visible Light 11h 38m
Length of Day
10h 40m
Tomorrow will be 2m 39s shorter.
New Moon, 1% of the Moon is Illuminated
Today
New Moon
Oct 30
First Quarter
Nov 6
Full
Nov 14
Last Quarter
Nov 22
New

Today's Extremes

State Highs State Lows

Community

WunderPhotos

Upload Photos

1,764,648 photos uploaded!

Nearby

Air Quality

  Air Quality AQ Index Pollutant
Yesterday Good
PM2.5
Current Good
PM2.5
Friday Good
PM2.5
Saturday Good
PM2.5
Sunday Good
PM2.5
Monday Moderate
PM2.5

Snow Depth

Station Depth Elevation
No new snow has been reported.

Earthquake Activity

City Distance Mag. Time & Date
No recent earthquake activity has been reported nearby.
Minimum magnitude displayed is 2.5.

Coastal Water Temperatures

Place Temperature
No Stations Reporting

Nearby Weather Stations